sensor_id;sensor_type;location;lat;lon;timestamp;P1;durP1;ratioP1;P2;durP2;ratioP2
505;SDS011;551;48.524;9.056;2023-05-14T00:00:35;11.27;;;7.50;;
505;SDS011;551;48.524;9.056;2023-05-14T00:03:00;8.57;;;7.77;;
505;SDS011;551;48.524;9.056;2023-05-14T00:05:26;9.17;;;8.27;;
505;SDS011;551;48.524;9.056;2023-05-14T00:07:51;8.97;;;8.10;;
505;SDS011;551;48.524;9.056;2023-05-14T00:10:17;9.40;;;8.40;;
505;SDS011;551;48.524;9.056;2023-05-14T00:12:44;13.23;;;7.80;;
505;SDS011;551;48.524;9.056;2023-05-14T00:15:10;8.40;;;7.60;;
505;SDS011;551;48.524;9.056;2023-05-14T00:17:35;9.83;;;7.97;;
505;SDS011;551;48.524;9.056;2023-05-14T00:20:02;11.40;;;9.17;;
505;SDS011;551;48.524;9.056;2023-05-14T00:22:31;9.87;;;8.87;;
505;SDS011;551;48.524;9.056;2023-05-14T00:24:56;8.70;;;7.80;;
505;SDS011;551;48.524;9.056;2023-05-14T00:27:22;11.80;;;9.13;;
505;SDS011;551;48.524;9.056;2023-05-14T00:29:48;13.67;;;9.90;;
505;SDS011;551;48.524;9.056;2023-05-14T00:32:13;12.70;;;8.40;;
505;SDS011;551;48.524;9.056;2023-05-14T00:34:39;10.93;;;9.07;;
505;SDS011;551;48.524;9.056;2023-05-14T00:37:04;11.83;;;8.47;;
505;SDS011;551;48.524;9.056;2023-05-14T00:39:30;9.57;;;8.57;;
505;SDS011;551;48.524;9.056;2023-05-14T00:41:55;10.60;;;9.07;;
505;SDS011;551;48.524;9.056;2023-05-14T00:44:21;11.00;;;9.50;;
505;SDS011;551;48.524;9.056;2023-05-14T00:46:46;11.43;;;9.67;;
505;SDS011;551;48.524;9.056;2023-05-14T00:49:12;14.90;;;10.23;;
505;SDS011;551;48.524;9.056;2023-05-14T00:51:38;16.47;;;9.60;;
505;SDS011;551;48.524;9.056;2023-05-14T00:54:05;11.83;;;9.97;;
505;SDS011;551;48.524;9.056;2023-05-14T00:56:31;13.20;;;9.70;;
505;SDS011;551;48.524;9.056;2023-05-14T00:58:56;12.57;;;9.80;;
505;SDS011;551;48.524;9.056;2023-05-14T01:01:22;12.60;;;9.50;;
505;SDS011;551;48.524;9.056;2023-05-14T01:03:47;10.70;;;9.60;;
505;SDS011;551;48.524;9.056;2023-05-14T01:07:01;12.00;;;10.03;;
505;SDS011;551;48.524;9.056;2023-05-14T01:09:33;11.60;;;9.83;;
505;SDS011;551;48.524;9.056;2023-05-14T01:13:03;10.97;;;9.13;;
505;SDS011;551;48.524;9.056;2023-05-14T01:15:14;11.83;;;8.93;;
505;SDS011;551;48.524;9.056;2023-05-14T01:17:52;11.60;;;8.93;;
505;SDS011;551;48.524;9.056;2023-05-14T01:20:20;10.90;;;9.10;;
505;SDS011;551;48.524;9.056;2023-05-14T01:22:46;10.37;;;8.70;;
505;SDS011;551;48.524;9.056;2023-05-14T01:25:11;9.80;;;8.70;;
505;SDS011;551;48.524;9.056;2023-05-14T01:27:40;10.13;;;9.20;;
505;SDS011;551;48.524;9.056;2023-05-14T01:30:15;9.13;;;7.60;;
505;SDS011;551;48.524;9.056;2023-05-14T01:32:47;9.30;;;8.40;;
505;SDS011;551;48.524;9.056;2023-05-14T01:35:19;8.80;;;7.90;;
505;SDS011;551;48.524;9.056;2023-05-14T01:37:48;10.27;;;8.20;;
505;SDS011;551;48.524;9.056;2023-05-14T01:40:14;9.30;;;8.40;;
505;SDS011;551;48.524;9.056;2023-05-14T01:42:40;8.00;;;7.30;;
505;SDS011;551;48.524;9.056;2023-05-14T01:45:07;10.87;;;8.93;;
505;SDS011;551;48.524;9.056;2023-05-14T01:47:33;9.70;;;8.10;;
505;SDS011;551;48.524;9.056;2023-05-14T01:49:58;12.90;;;8.97;;
505;SDS011;551;48.524;9.056;2023-05-14T01:52:24;10.83;;;8.97;;
505;SDS011;551;48.524;9.056;2023-05-14T01:54:49;10.20;;;7.77;;
505;SDS011;551;48.524;9.056;2023-05-14T01:57:15;8.27;;;7.47;;
505;SDS011;551;48.524;9.056;2023-05-14T01:59:40;10.00;;;8.53;;
505;SDS011;551;48.524;9.056;2023-05-14T02:02:06;14.30;;;7.97;;
505;SDS011;551;48.524;9.056;2023-05-14T02:04:31;9.97;;;8.37;;
505;SDS011;551;48.524;9.056;2023-05-14T02:06:57;8.50;;;7.57;;
505;SDS011;551;48.524;9.056;2023-05-14T02:09:22;9.97;;;8.90;;
505;SDS011;551;48.524;9.056;2023-05-14T02:11:48;17.13;;;9.60;;
505;SDS011;551;48.524;9.056;2023-05-14T02:14:14;15.57;;;10.13;;
505;SDS011;551;48.524;9.056;2023-05-14T02:16:39;13.20;;;9.30;;
505;SDS011;551;48.524;9.056;2023-05-14T02:19:05;9.83;;;8.47;;
505;SDS011;551;48.524;9.056;2023-05-14T02:21:31;13.03;;;8.90;;
505;SDS011;551;48.524;9.056;2023-05-14T02:23:56;11.77;;;9.43;;
505;SDS011;551;48.524;9.056;2023-05-14T02:26:22;12.30;;;10.13;;
505;SDS011;551;48.524;9.056;2023-05-14T02:28:47;11.20;;;9.63;;
505;SDS011;551;48.524;9.056;2023-05-14T02:31:13;16.83;;;11.50;;
505;SDS011;551;48.524;9.056;2023-05-14T02:33:39;12.40;;;9.60;;
505;SDS011;551;48.524;9.056;2023-05-14T02:36:04;10.53;;;9.10;;
505;SDS011;551;48.524;9.056;2023-05-14T02:38:30;12.87;;;10.10;;
505;SDS011;551;48.524;9.056;2023-05-14T02:40:56;10.50;;;8.97;;
505;SDS011;551;48.524;9.056;2023-05-14T02:43:21;10.43;;;9.03;;
505;SDS011;551;48.524;9.056;2023-05-14T02:45:47;15.90;;;9.97;;
505;SDS011;551;48.524;9.056;2023-05-14T02:48:12;12.00;;;9.60;;
505;SDS011;551;48.524;9.056;2023-05-14T02:50:38;14.67;;;10.33;;
505;SDS011;551;48.524;9.056;2023-05-14T02:53:03;14.60;;;11.30;;
505;SDS011;551;48.524;9.056;2023-05-14T02:55:29;10.50;;;9.43;;
505;SDS011;551;48.524;9.056;2023-05-14T02:57:55;14.67;;;10.47;;
505;SDS011;551;48.524;9.056;2023-05-14T03:00:20;10.40;;;9.30;;
505;SDS011;551;48.524;9.056;2023-05-14T03:02:46;11.23;;;10.07;;
505;SDS011;551;48.524;9.056;2023-05-14T03:05:11;11.77;;;9.90;;
505;SDS011;551;48.524;9.056;2023-05-14T03:07:37;20.03;;;9.73;;
505;SDS011;551;48.524;9.056;2023-05-14T03:10:02;11.70;;;10.10;;
505;SDS011;551;48.524;9.056;2023-05-14T03:12:28;14.20;;;11.03;;
505;SDS011;551;48.524;9.056;2023-05-14T03:14:54;13.30;;;9.73;;
505;SDS011;551;48.524;9.056;2023-05-14T03:17:19;11.30;;;9.50;;
505;SDS011;551;48.524;9.056;2023-05-14T03:19:45;14.33;;;10.80;;
505;SDS011;551;48.524;9.056;2023-05-14T03:22:10;11.93;;;9.27;;
505;SDS011;551;48.524;9.056;2023-05-14T03:24:37;12.43;;;10.00;;
505;SDS011;551;48.524;9.056;2023-05-14T03:27:04;11.83;;;9.03;;
505;SDS011;551;48.524;9.056;2023-05-14T03:29:29;11.33;;;9.30;;
505;SDS011;551;48.524;9.056;2023-05-14T03:31:55;11.20;;;9.20;;
505;SDS011;551;48.524;9.056;2023-05-14T03:34:20;10.93;;;9.27;;
505;SDS011;551;48.524;9.056;2023-05-14T03:36:46;12.00;;;9.57;;
505;SDS011;551;48.524;9.056;2023-05-14T03:39:12;11.33;;;9.97;;
505;SDS011;551;48.524;9.056;2023-05-14T03:41:43;10.73;;;9.63;;
505;SDS011;551;48.524;9.056;2023-05-14T03:44:12;12.43;;;9.90;;
505;SDS011;551;48.524;9.056;2023-05-14T03:46:38;11.87;;;9.67;;
505;SDS011;551;48.524;9.056;2023-05-14T03:49:03;10.70;;;8.90;;
505;SDS011;551;48.524;9.056;2023-05-14T03:51:30;13.90;;;9.80;;
505;SDS011;551;48.524;9.056;2023-05-14T03:53:56;9.53;;;8.63;;
505;SDS011;551;48.524;9.056;2023-05-14T03:56:22;9.23;;;8.20;;
505;SDS011;551;48.524;9.056;2023-05-14T03:58:48;9.30;;;8.30;;
505;SDS011;551;48.524;9.056;2023-05-14T04:01:13;11.93;;;8.20;;
505;SDS011;551;48.524;9.056;2023-05-14T04:03:39;11.03;;;9.07;;
505;SDS011;551;48.524;9.056;2023-05-14T04:06:05;8.77;;;7.30;;
505;SDS011;551;48.524;9.056;2023-05-14T04:08:30;9.10;;;8.10;;
505;SDS011;551;48.524;9.056;2023-05-14T04:10:56;13.50;;;8.07;;
505;SDS011;551;48.524;9.056;2023-05-14T04:13:21;7.90;;;7.10;;
505;SDS011;551;48.524;9.056;2023-05-14T04:15:47;9.77;;;7.60;;
505;SDS011;551;48.524;9.056;2023-05-14T04:18:12;8.10;;;7.20;;
505;SDS011;551;48.524;9.056;2023-05-14T04:20:38;8.23;;;6.80;;
505;SDS011;551;48.524;9.056;2023-05-14T04:23:04;7.93;;;7.20;;
505;SDS011;551;48.524;9.056;2023-05-14T04:25:29;9.20;;;6.90;;
505;SDS011;551;48.524;9.056;2023-05-14T04:27:55;8.37;;;7.50;;
505;SDS011;551;48.524;9.056;2023-05-14T04:30:21;8.00;;;7.00;;
505;SDS011;551;48.524;9.056;2023-05-14T04:32:46;9.90;;;7.67;;
505;SDS011;551;48.524;9.056;2023-05-14T04:35:12;9.07;;;7.57;;
505;SDS011;551;48.524;9.056;2023-05-14T04:37:37;7.27;;;6.57;;
505;SDS011;551;48.524;9.056;2023-05-14T04:40:03;8.30;;;7.40;;
505;SDS011;551;48.524;9.056;2023-05-14T04:42:30;8.50;;;7.63;;
505;SDS011;551;48.524;9.056;2023-05-14T04:44:56;10.63;;;7.70;;
505;SDS011;551;48.524;9.056;2023-05-14T04:47:21;9.40;;;7.13;;
505;SDS011;551;48.524;9.056;2023-05-14T04:49:47;8.60;;;7.50;;
505;SDS011;551;48.524;9.056;2023-05-14T04:52:13;10.17;;;8.73;;
505;SDS011;551;48.524;9.056;2023-05-14T04:54:38;9.83;;;7.83;;
505;SDS011;551;48.524;9.056;2023-05-14T04:57:04;9.60;;;7.70;;
505;SDS011;551;48.524;9.056;2023-05-14T04:59:30;8.67;;;7.87;;
505;SDS011;551;48.524;9.056;2023-05-14T05:01:55;10.50;;;9.40;;
505;SDS011;551;48.524;9.056;2023-05-14T05:04:22;11.77;;;9.07;;
505;SDS011;551;48.524;9.056;2023-05-14T05:06:48;11.80;;;9.00;;
505;SDS011;551;48.524;9.056;2023-05-14T05:09:14;10.53;;;9.40;;
505;SDS011;551;48.524;9.056;2023-05-14T05:11:41;11.70;;;9.40;;
505;SDS011;551;48.524;9.056;2023-05-14T05:14:06;11.10;;;9.30;;
505;SDS011;551;48.524;9.056;2023-05-14T05:16:32;11.70;;;9.80;;
505;SDS011;551;48.524;9.056;2023-05-14T05:18:57;11.43;;;9.53;;
505;SDS011;551;48.524;9.056;2023-05-14T05:21:24;9.20;;;7.77;;
505;SDS011;551;48.524;9.056;2023-05-14T05:23:50;8.63;;;7.73;;
505;SDS011;551;48.524;9.056;2023-05-14T05:26:15;9.97;;;8.87;;
505;SDS011;551;48.524;9.056;2023-05-14T05:28:41;13.10;;;9.07;;
505;SDS011;551;48.524;9.056;2023-05-14T05:31:06;11.10;;;8.20;;
505;SDS011;551;48.524;9.056;2023-05-14T05:33:32;12.40;;;8.10;;
505;SDS011;551;48.524;9.056;2023-05-14T05:35:58;11.60;;;8.60;;
505;SDS011;551;48.524;9.056;2023-05-14T05:38:24;9.10;;;8.10;;
505;SDS011;551;48.524;9.056;2023-05-14T05:40:49;9.27;;;7.97;;
505;SDS011;551;48.524;9.056;2023-05-14T05:43:15;9.57;;;8.57;;
505;SDS011;551;48.524;9.056;2023-05-14T05:45:41;12.60;;;9.10;;
505;SDS011;551;48.524;9.056;2023-05-14T05:48:06;9.53;;;8.53;;
505;SDS011;551;48.524;9.056;2023-05-14T05:50:32;11.13;;;8.60;;
505;SDS011;551;48.524;9.056;2023-05-14T05:52:57;9.00;;;8.10;;
505;SDS011;551;48.524;9.056;2023-05-14T05:55:26;8.20;;;7.40;;
505;SDS011;551;48.524;9.056;2023-05-14T05:57:52;10.37;;;9.13;;
505;SDS011;551;48.524;9.056;2023-05-14T06:00:17;11.30;;;8.00;;
505;SDS011;551;48.524;9.056;2023-05-14T06:02:44;10.43;;;9.23;;
505;SDS011;551;48.524;9.056;2023-05-14T06:05:10;9.23;;;8.43;;
505;SDS011;551;48.524;9.056;2023-05-14T06:07:36;9.90;;;8.90;;
505;SDS011;551;48.524;9.056;2023-05-14T06:10:02;11.17;;;8.63;;
505;SDS011;551;48.524;9.056;2023-05-14T06:12:28;9.83;;;8.90;;
505;SDS011;551;48.524;9.056;2023-05-14T06:14:54;11.03;;;9.00;;
505;SDS011;551;48.524;9.056;2023-05-14T06:17:21;10.10;;;9.00;;
505;SDS011;551;48.524;9.056;2023-05-14T06:19:47;11.30;;;9.57;;
505;SDS011;551;48.524;9.056;2023-05-14T06:22:13;12.37;;;9.60;;
505;SDS011;551;48.524;9.056;2023-05-14T06:24:39;9.90;;;8.43;;
505;SDS011;551;48.524;9.056;2023-05-14T06:27:04;11.80;;;9.53;;
505;SDS011;551;48.524;9.056;2023-05-14T06:29:30;11.27;;;9.37;;
505;SDS011;551;48.524;9.056;2023-05-14T06:31:56;12.97;;;9.67;;
505;SDS011;551;48.524;9.056;2023-05-14T06:34:25;12.13;;;9.80;;
505;SDS011;551;48.524;9.056;2023-05-14T06:36:51;10.10;;;9.07;;
505;SDS011;551;48.524;9.056;2023-05-14T06:39:17;10.40;;;9.30;;
505;SDS011;551;48.524;9.056;2023-05-14T06:41:42;9.87;;;8.97;;
505;SDS011;551;48.524;9.056;2023-05-14T06:44:08;10.70;;;9.07;;
505;SDS011;551;48.524;9.056;2023-05-14T06:46:34;12.43;;;9.90;;
505;SDS011;551;48.524;9.056;2023-05-14T06:48:59;9.63;;;8.53;;
505;SDS011;551;48.524;9.056;2023-05-14T06:51:25;13.00;;;9.87;;
505;SDS011;551;48.524;9.056;2023-05-14T06:53:50;16.17;;;10.40;;
505;SDS011;551;48.524;9.056;2023-05-14T06:56:17;11.60;;;9.60;;
505;SDS011;551;48.524;9.056;2023-05-14T06:58:43;10.73;;;9.60;;
505;SDS011;551;48.524;9.056;2023-05-14T07:01:08;12.40;;;8.70;;
505;SDS011;551;48.524;9.056;2023-05-14T07:03:34;10.40;;;9.30;;
505;SDS011;551;48.524;9.056;2023-05-14T07:06:00;11.00;;;8.93;;
505;SDS011;551;48.524;9.056;2023-05-14T07:08:25;11.10;;;8.90;;
505;SDS011;551;48.524;9.056;2023-05-14T07:10:51;11.87;;;9.60;;
505;SDS011;551;48.524;9.056;2023-05-14T07:13:16;11.87;;;9.37;;
505;SDS011;551;48.524;9.056;2023-05-14T07:15:42;14.93;;;10.43;;
505;SDS011;551;48.524;9.056;2023-05-14T07:18:07;10.23;;;9.17;;
505;SDS011;551;48.524;9.056;2023-05-14T07:20:33;12.73;;;8.83;;
505;SDS011;551;48.524;9.056;2023-05-14T07:22:58;13.50;;;8.50;;
505;SDS011;551;48.524;9.056;2023-05-14T07:25:24;10.10;;;9.13;;
505;SDS011;551;48.524;9.056;2023-05-14T07:27:49;12.53;;;10.10;;
505;SDS011;551;48.524;9.056;2023-05-14T07:30:15;10.87;;;9.77;;
505;SDS011;551;48.524;9.056;2023-05-14T07:32:40;11.47;;;9.60;;
505;SDS011;551;48.524;9.056;2023-05-14T07:35:06;14.40;;;8.87;;
505;SDS011;551;48.524;9.056;2023-05-14T07:37:32;11.23;;;8.93;;
505;SDS011;551;48.524;9.056;2023-05-14T07:39:58;10.70;;;9.23;;
505;SDS011;551;48.524;9.056;2023-05-14T07:42:23;12.43;;;9.70;;
505;SDS011;551;48.524;9.056;2023-05-14T07:44:48;13.27;;;9.80;;
505;SDS011;551;48.524;9.056;2023-05-14T07:47:15;11.13;;;9.80;;
505;SDS011;551;48.524;9.056;2023-05-14T07:49:40;11.60;;;9.80;;
505;SDS011;551;48.524;9.056;2023-05-14T07:52:06;10.83;;;9.60;;
505;SDS011;551;48.524;9.056;2023-05-14T07:54:31;11.93;;;10.20;;
505;SDS011;551;48.524;9.056;2023-05-14T07:56:57;12.87;;;10.17;;
505;SDS011;551;48.524;9.056;2023-05-14T07:59:22;11.47;;;10.03;;
505;SDS011;551;48.524;9.056;2023-05-14T08:01:48;12.43;;;9.77;;
505;SDS011;551;48.524;9.056;2023-05-14T08:04:13;11.83;;;9.53;;
505;SDS011;551;48.524;9.056;2023-05-14T08:06:40;13.10;;;10.70;;
505;SDS011;551;48.524;9.056;2023-05-14T08:09:06;13.53;;;10.03;;
505;SDS011;551;48.524;9.056;2023-05-14T08:11:32;12.37;;;9.20;;
505;SDS011;551;48.524;9.056;2023-05-14T08:13:58;10.40;;;9.40;;
505;SDS011;551;48.524;9.056;2023-05-14T08:16:24;11.17;;;9.97;;
505;SDS011;551;48.524;9.056;2023-05-14T08:18:50;13.40;;;9.57;;
505;SDS011;551;48.524;9.056;2023-05-14T08:21:15;11.43;;;9.33;;
505;SDS011;551;48.524;9.056;2023-05-14T08:23:41;10.27;;;8.73;;
505;SDS011;551;48.524;9.056;2023-05-14T08:26:07;12.37;;;8.90;;
505;SDS011;551;48.524;9.056;2023-05-14T08:28:33;10.17;;;9.10;;
505;SDS011;551;48.524;9.056;2023-05-14T08:30:58;10.83;;;9.00;;
505;SDS011;551;48.524;9.056;2023-05-14T08:33:24;10.70;;;8.40;;
505;SDS011;551;48.524;9.056;2023-05-14T08:35:52;9.30;;;8.30;;
505;SDS011;551;48.524;9.056;2023-05-14T08:38:18;10.43;;;9.10;;
505;SDS011;551;48.524;9.056;2023-05-14T08:40:54;11.57;;;8.73;;
505;SDS011;551;48.524;9.056;2023-05-14T08:43:34;9.37;;;8.23;;
505;SDS011;551;48.524;9.056;2023-05-14T08:46:08;10.17;;;9.17;;
505;SDS011;551;48.524;9.056;2023-05-14T08:48:38;9.33;;;8.37;;
505;SDS011;551;48.524;9.056;2023-05-14T08:51:06;10.07;;;9.07;;
505;SDS011;551;48.524;9.056;2023-05-14T08:53:32;9.40;;;8.50;;
505;SDS011;551;48.524;9.056;2023-05-14T08:55:58;9.53;;;8.53;;
505;SDS011;551;48.524;9.056;2023-05-14T08:58:25;17.83;;;9.70;;
505;SDS011;551;48.524;9.056;2023-05-14T09:00:52;11.63;;;10.43;;
505;SDS011;551;48.524;9.056;2023-05-14T09:03:18;10.30;;;9.30;;
505;SDS011;551;48.524;9.056;2023-05-14T09:05:45;10.80;;;9.07;;
505;SDS011;551;48.524;9.056;2023-05-14T09:08:12;11.90;;;10.47;;
505;SDS011;551;48.524;9.056;2023-05-14T09:10:38;19.40;;;10.60;;
505;SDS011;551;48.524;9.056;2023-05-14T09:13:04;10.77;;;9.67;;
505;SDS011;551;48.524;9.056;2023-05-14T09:15:30;11.20;;;9.17;;
505;SDS011;551;48.524;9.056;2023-05-14T09:17:56;10.53;;;9.40;;
505;SDS011;551;48.524;9.056;2023-05-14T09:20:23;11.10;;;10.00;;
505;SDS011;551;48.524;9.056;2023-05-14T09:22:51;10.30;;;9.13;;
505;SDS011;551;48.524;9.056;2023-05-14T09:25:18;10.93;;;9.83;;
505;SDS011;551;48.524;9.056;2023-05-14T09:27:44;12.23;;;9.13;;
505;SDS011;551;48.524;9.056;2023-05-14T09:30:14;10.93;;;9.93;;
505;SDS011;551;48.524;9.056;2023-05-14T09:32:40;11.00;;;9.90;;
505;SDS011;551;48.524;9.056;2023-05-14T09:37:48;9.80;;;8.90;;
505;SDS011;551;48.524;9.056;2023-05-14T09:40:15;14.33;;;8.87;;
505;SDS011;551;48.524;9.056;2023-05-14T09:42:41;11.17;;;9.87;;
505;SDS011;551;48.524;9.056;2023-05-14T09:45:07;10.67;;;9.43;;
505;SDS011;551;48.524;9.056;2023-05-14T09:47:34;9.30;;;8.37;;
505;SDS011;551;48.524;9.056;2023-05-14T09:50:00;11.17;;;10.10;;
505;SDS011;551;48.524;9.056;2023-05-14T09:52:26;10.20;;;9.23;;
505;SDS011;551;48.524;9.056;2023-05-14T09:54:51;9.40;;;8.37;;
505;SDS011;551;48.524;9.056;2023-05-14T09:57:17;10.20;;;9.30;;
505;SDS011;551;48.524;9.056;2023-05-14T09:59:43;11.53;;;10.10;;
505;SDS011;551;48.524;9.056;2023-05-14T10:02:12;9.47;;;8.57;;
505;SDS011;551;48.524;9.056;2023-05-14T10:04:45;8.87;;;7.97;;
505;SDS011;551;48.524;9.056;2023-05-14T10:07:13;10.47;;;9.00;;
505;SDS011;551;48.524;9.056;2023-05-14T10:09:41;10.20;;;9.17;;
505;SDS011;551;48.524;9.056;2023-05-14T10:12:09;9.57;;;8.77;;
505;SDS011;551;48.524;9.056;2023-05-14T10:14:38;10.10;;;9.17;;
505;SDS011;551;48.524;9.056;2023-05-14T10:17:06;10.17;;;9.23;;
505;SDS011;551;48.524;9.056;2023-05-14T10:19:42;8.80;;;8.00;;
505;SDS011;551;48.524;9.056;2023-05-14T10:22:11;9.73;;;7.73;;
505;SDS011;551;48.524;9.056;2023-05-14T10:24:41;9.10;;;8.30;;
505;SDS011;551;48.524;9.056;2023-05-14T10:27:07;8.40;;;7.60;;
505;SDS011;551;48.524;9.056;2023-05-14T10:29:33;8.83;;;7.93;;
505;SDS011;551;48.524;9.056;2023-05-14T10:32:04;9.33;;;8.40;;
505;SDS011;551;48.524;9.056;2023-05-14T10:37:24;7.07;;;6.57;;
505;SDS011;551;48.524;9.056;2023-05-14T10:39:51;6.90;;;6.40;;
505;SDS011;551;48.524;9.056;2023-05-14T10:42:19;6.97;;;6.47;;
505;SDS011;551;48.524;9.056;2023-05-14T10:45:05;7.83;;;7.20;;
505;SDS011;551;48.524;9.056;2023-05-14T10:47:37;7.13;;;6.53;;
505;SDS011;551;48.524;9.056;2023-05-14T10:50:04;7.17;;;6.57;;
505;SDS011;551;48.524;9.056;2023-05-14T10:52:31;7.73;;;6.83;;
505;SDS011;551;48.524;9.056;2023-05-14T10:54:59;8.73;;;6.40;;
505;SDS011;551;48.524;9.056;2023-05-14T10:57:27;6.40;;;5.90;;
505;SDS011;551;48.524;9.056;2023-05-14T10:59:55;6.57;;;5.97;;
505;SDS011;551;48.524;9.056;2023-05-14T11:02:22;6.70;;;6.20;;
505;SDS011;551;48.524;9.056;2023-05-14T11:05:00;6.47;;;5.87;;
505;SDS011;551;48.524;9.056;2023-05-14T11:07:31;5.93;;;5.43;;
505;SDS011;551;48.524;9.056;2023-05-14T11:10:03;7.23;;;6.63;;
505;SDS011;551;48.524;9.056;2023-05-14T11:12:29;7.27;;;6.67;;
505;SDS011;551;48.524;9.056;2023-05-14T11:14:56;6.90;;;6.40;;
505;SDS011;551;48.524;9.056;2023-05-14T11:17:26;6.43;;;5.83;;
505;SDS011;551;48.524;9.056;2023-05-14T11:19:53;6.30;;;5.70;;
505;SDS011;551;48.524;9.056;2023-05-14T11:22:19;6.90;;;6.27;;
505;SDS011;551;48.524;9.056;2023-05-14T11:24:45;6.43;;;5.77;;
505;SDS011;551;48.524;9.056;2023-05-14T11:27:10;5.90;;;5.40;;
505;SDS011;551;48.524;9.056;2023-05-14T11:29:36;5.30;;;4.90;;
505;SDS011;551;48.524;9.056;2023-05-14T11:32:03;4.97;;;4.67;;
505;SDS011;551;48.524;9.056;2023-05-14T11:34:30;5.57;;;5.07;;
505;SDS011;551;48.524;9.056;2023-05-14T11:36:56;5.00;;;4.67;;
505;SDS011;551;48.524;9.056;2023-05-14T11:39:21;5.90;;;5.30;;
505;SDS011;551;48.524;9.056;2023-05-14T11:41:47;5.70;;;5.23;;
505;SDS011;551;48.524;9.056;2023-05-14T11:44:13;5.30;;;5.00;;
505;SDS011;551;48.524;9.056;2023-05-14T11:46:38;5.23;;;4.83;;
505;SDS011;551;48.524;9.056;2023-05-14T11:49:04;6.00;;;5.40;;
505;SDS011;551;48.524;9.056;2023-05-14T11:51:30;6.13;;;4.70;;
505;SDS011;551;48.524;9.056;2023-05-14T11:53:56;4.97;;;4.57;;
505;SDS011;551;48.524;9.056;2023-05-14T11:56:22;5.67;;;5.27;;
505;SDS011;551;48.524;9.056;2023-05-14T11:58:48;6.30;;;5.47;;
505;SDS011;551;48.524;9.056;2023-05-14T12:01:19;4.87;;;4.47;;
505;SDS011;551;48.524;9.056;2023-05-14T12:03:44;4.77;;;4.37;;
505;SDS011;551;48.524;9.056;2023-05-14T12:06:10;5.60;;;5.13;;
505;SDS011;551;48.524;9.056;2023-05-14T12:08:36;6.83;;;4.53;;
505;SDS011;551;48.524;9.056;2023-05-14T12:11:01;4.50;;;4.20;;
505;SDS011;551;48.524;9.056;2023-05-14T12:13:30;4.60;;;4.30;;
505;SDS011;551;48.524;9.056;2023-05-14T12:15:56;5.07;;;4.67;;
505;SDS011;551;48.524;9.056;2023-05-14T12:18:24;6.47;;;5.03;;
505;SDS011;551;48.524;9.056;2023-05-14T12:20:52;6.27;;;4.60;;
505;SDS011;551;48.524;9.056;2023-05-14T12:23:24;5.10;;;4.73;;
505;SDS011;551;48.524;9.056;2023-05-14T12:25:51;5.80;;;5.23;;
505;SDS011;551;48.524;9.056;2023-05-14T12:28:17;4.83;;;4.43;;
505;SDS011;551;48.524;9.056;2023-05-14T12:30:44;6.57;;;5.70;;
505;SDS011;551;48.524;9.056;2023-05-14T12:33:10;5.60;;;5.10;;
505;SDS011;551;48.524;9.056;2023-05-14T12:35:36;4.50;;;4.10;;
505;SDS011;551;48.524;9.056;2023-05-14T12:38:02;4.73;;;4.37;;
505;SDS011;551;48.524;9.056;2023-05-14T12:40:28;5.10;;;4.60;;
505;SDS011;551;48.524;9.056;2023-05-14T12:42:54;4.57;;;3.93;;
505;SDS011;551;48.524;9.056;2023-05-14T12:45:19;6.10;;;5.53;;
505;SDS011;551;48.524;9.056;2023-05-14T12:47:45;5.67;;;5.20;;
505;SDS011;551;48.524;9.056;2023-05-14T12:50:10;4.57;;;4.10;;
505;SDS011;551;48.524;9.056;2023-05-14T12:52:36;5.80;;;5.40;;
505;SDS011;551;48.524;9.056;2023-05-14T12:55:02;5.90;;;5.40;;
505;SDS011;551;48.524;9.056;2023-05-14T12:57:27;4.70;;;4.40;;
505;SDS011;551;48.524;9.056;2023-05-14T12:59:54;5.40;;;4.90;;
505;SDS011;551;48.524;9.056;2023-05-14T13:02:23;4.53;;;4.17;;
505;SDS011;551;48.524;9.056;2023-05-14T13:04:49;4.57;;;4.20;;
505;SDS011;551;48.524;9.056;2023-05-14T13:07:14;4.40;;;4.10;;
505;SDS011;551;48.524;9.056;2023-05-14T13:09:40;4.43;;;4.13;;
505;SDS011;551;48.524;9.056;2023-05-14T13:12:05;5.13;;;4.67;;
505;SDS011;551;48.524;9.056;2023-05-14T13:14:31;5.93;;;5.43;;
505;SDS011;551;48.524;9.056;2023-05-14T13:16:57;6.10;;;5.50;;
505;SDS011;551;48.524;9.056;2023-05-14T13:19:22;6.20;;;5.60;;
505;SDS011;551;48.524;9.056;2023-05-14T13:21:48;6.67;;;6.07;;
505;SDS011;551;48.524;9.056;2023-05-14T13:24:13;7.13;;;6.43;;
505;SDS011;551;48.524;9.056;2023-05-14T13:26:39;7.80;;;6.70;;
505;SDS011;551;48.524;9.056;2023-05-14T13:29:04;7.43;;;6.73;;
505;SDS011;551;48.524;9.056;2023-05-14T13:31:30;5.93;;;5.43;;
505;SDS011;551;48.524;9.056;2023-05-14T13:33:56;7.70;;;7.00;;
505;SDS011;551;48.524;9.056;2023-05-14T13:36:23;7.60;;;6.83;;
505;SDS011;551;48.524;9.056;2023-05-14T13:38:48;8.63;;;6.87;;
505;SDS011;551;48.524;9.056;2023-05-14T13:41:14;8.73;;;6.97;;
505;SDS011;551;48.524;9.056;2023-05-14T13:43:39;7.50;;;6.73;;
505;SDS011;551;48.524;9.056;2023-05-14T13:46:05;6.93;;;6.33;;
505;SDS011;551;48.524;9.056;2023-05-14T13:48:31;6.23;;;5.63;;
505;SDS011;551;48.524;9.056;2023-05-14T13:50:56;6.13;;;5.63;;
505;SDS011;551;48.524;9.056;2023-05-14T13:53:23;5.53;;;5.03;;
505;SDS011;551;48.524;9.056;2023-05-14T13:55:49;5.13;;;4.73;;
505;SDS011;551;48.524;9.056;2023-05-14T13:58:20;8.30;;;4.87;;
505;SDS011;551;48.524;9.056;2023-05-14T14:00:46;6.17;;;5.60;;
505;SDS011;551;48.524;9.056;2023-05-14T14:03:11;6.70;;;5.97;;
505;SDS011;551;48.524;9.056;2023-05-14T14:05:37;8.10;;;6.17;;
505;SDS011;551;48.524;9.056;2023-05-14T14:08:03;9.50;;;6.00;;
505;SDS011;551;48.524;9.056;2023-05-14T14:10:29;8.60;;;6.07;;
505;SDS011;551;48.524;9.056;2023-05-14T14:12:55;6.63;;;6.03;;
505;SDS011;551;48.524;9.056;2023-05-14T14:15:21;6.77;;;6.17;;
505;SDS011;551;48.524;9.056;2023-05-14T14:17:47;7.20;;;6.20;;
505;SDS011;551;48.524;9.056;2023-05-14T14:20:13;7.53;;;6.13;;
505;SDS011;551;48.524;9.056;2023-05-14T14:22:39;7.83;;;6.90;;
505;SDS011;551;48.524;9.056;2023-05-14T14:25:06;7.10;;;6.40;;
505;SDS011;551;48.524;9.056;2023-05-14T14:27:32;7.70;;;6.43;;
505;SDS011;551;48.524;9.056;2023-05-14T14:30:02;5.60;;;5.10;;
505;SDS011;551;48.524;9.056;2023-05-14T14:32:41;5.90;;;5.40;;
505;SDS011;551;48.524;9.056;2023-05-14T14:35:08;5.70;;;5.20;;
505;SDS011;551;48.524;9.056;2023-05-14T14:37:34;6.70;;;5.87;;
505;SDS011;551;48.524;9.056;2023-05-14T14:40:00;4.90;;;4.50;;
505;SDS011;551;48.524;9.056;2023-05-14T14:42:25;6.53;;;5.90;;
505;SDS011;551;48.524;9.056;2023-05-14T14:44:51;5.63;;;5.07;;
505;SDS011;551;48.524;9.056;2023-05-14T14:47:16;4.83;;;4.43;;
505;SDS011;551;48.524;9.056;2023-05-14T14:49:42;6.50;;;5.80;;
505;SDS011;551;48.524;9.056;2023-05-14T14:52:07;8.57;;;5.00;;
505;SDS011;551;48.524;9.056;2023-05-14T14:54:33;5.50;;;5.07;;
505;SDS011;551;48.524;9.056;2023-05-14T14:56:58;5.77;;;5.10;;
505;SDS011;551;48.524;9.056;2023-05-14T14:59:24;6.77;;;5.27;;
505;SDS011;551;48.524;9.056;2023-05-14T15:01:49;7.40;;;5.73;;
505;SDS011;551;48.524;9.056;2023-05-14T15:04:15;6.60;;;5.20;;
505;SDS011;551;48.524;9.056;2023-05-14T15:06:40;5.87;;;5.27;;
505;SDS011;551;48.524;9.056;2023-05-14T15:09:06;9.13;;;5.70;;
505;SDS011;551;48.524;9.056;2023-05-14T15:11:31;9.10;;;6.27;;
505;SDS011;551;48.524;9.056;2023-05-14T15:13:57;6.30;;;5.47;;
505;SDS011;551;48.524;9.056;2023-05-14T15:16:22;5.00;;;4.57;;
505;SDS011;551;48.524;9.056;2023-05-14T15:18:48;5.17;;;4.77;;
505;SDS011;551;48.524;9.056;2023-05-14T15:21:13;5.70;;;5.20;;
505;SDS011;551;48.524;9.056;2023-05-14T15:23:39;6.13;;;5.63;;
505;SDS011;551;48.524;9.056;2023-05-14T15:26:06;5.37;;;4.93;;
505;SDS011;551;48.524;9.056;2023-05-14T15:28:31;7.17;;;6.17;;
505;SDS011;551;48.524;9.056;2023-05-14T15:30:57;7.07;;;5.97;;
505;SDS011;551;48.524;9.056;2023-05-14T15:33:23;7.93;;;6.00;;
505;SDS011;551;48.524;9.056;2023-05-14T15:35:48;7.50;;;5.50;;
505;SDS011;551;48.524;9.056;2023-05-14T15:38:14;9.00;;;5.10;;